sensor_id;sensor_type;location;lat;lon;timestamp;pressure;altitude;pressure_sealevel;temperature;humidity
40992;BME280;29633;49.168;9.848;2023-02-17T00:01:00;97645.69;;;13.64;54.14
40992;BME280;29633;49.168;9.848;2023-02-17T00:03:26;97649.84;;;13.67;54.05
40992;BME280;29633;49.168;9.848;2023-02-17T00:05:52;97640.22;;;13.67;53.98
40992;BME280;29633;49.168;9.848;2023-02-17T00:08:18;97634.81;;;13.70;54.10
40992;BME280;29633;49.168;9.848;2023-02-17T00:10:44;97641.66;;;13.71;54.02
40992;BME280;29633;49.168;9.848;2023-02-17T00:13:09;97633.97;;;13.70;54.18
40992;BME280;29633;49.168;9.848;2023-02-17T00:15:37;97624.38;;;13.70;53.93
40992;BME280;29633;49.168;9.848;2023-02-17T00:18:03;97631.22;;;13.71;54.10
40992;BME280;29633;49.168;9.848;2023-02-17T00:20:29;97627.78;;;13.71;54.11
40992;BME280;29633;49.168;9.848;2023-02-17T00:22:55;97618.19;;;13.71;54.04
40992;BME280;29633;49.168;9.848;2023-02-17T00:25:20;97617.25;;;13.72;54.25
40992;BME280;29633;49.168;9.848;2023-02-17T00:27:46;97618.78;;;13.75;54.11
40992;BME280;29633;49.168;9.848;2023-02-17T00:30:11;97622.22;;;13.75;54.13
40992;BME280;29633;49.168;9.848;2023-02-17T00:32:37;97613.72;;;13.73;54.02
40992;BME280;29633;49.168;9.848;2023-02-17T00:35:05;97617.00;;;13.75;54.08
40992;BME280;29633;49.168;9.848;2023-02-17T00:37:33;97612.53;;;13.77;54.02
40992;BME280;29633;49.168;9.848;2023-02-17T00:40:00;97609.91;;;13.77;54.02
40992;BME280;29633;49.168;9.848;2023-02-17T00:42:25;97622.94;;;13.77;53.91
40992;BME280;29633;49.168;9.848;2023-02-17T00:44:51;97618.91;;;13.73;54.11
40992;BME280;29633;49.168;9.848;2023-02-17T00:47:16;97610.38;;;13.71;54.18
40992;BME280;29633;49.168;9.848;2023-02-17T00:49:42;97611.47;;;13.69;54.24
40992;BME280;29633;49.168;9.848;2023-02-17T00:52:08;97614.19;;;13.67;54.22
40992;BME280;29633;49.168;9.848;2023-02-17T00:54:36;97614.31;;;13.66;54.13
40992;BME280;29633;49.168;9.848;2023-02-17T00:57:01;97620.22;;;13.68;54.20
40992;BME280;29633;49.168;9.848;2023-02-17T00:59:27;97622.97;;;13.66;54.18
40992;BME280;29633;49.168;9.848;2023-02-17T01:01:52;97615.16;;;13.66;54.38
40992;BME280;29633;49.168;9.848;2023-02-17T01:04:18;97616.09;;;13.65;54.26
40992;BME280;29633;49.168;9.848;2023-02-17T01:06:44;97608.16;;;13.67;54.41
40992;BME280;29633;49.168;9.848;2023-02-17T01:09:12;97604.47;;;13.69;54.25
40992;BME280;29633;49.168;9.848;2023-02-17T01:11:39;97613.38;;;13.67;54.44
40992;BME280;29633;49.168;9.848;2023-02-17T01:14:05;97610.03;;;13.65;54.26
40992;BME280;29633;49.168;9.848;2023-02-17T01:16:33;97603.06;;;13.65;54.32
40992;BME280;29633;49.168;9.848;2023-02-17T01:19:07;97608.38;;;13.64;54.21
40992;BME280;29633;49.168;9.848;2023-02-17T01:21:34;97592.06;;;13.62;54.22
40992;BME280;29633;49.168;9.848;2023-02-17T01:24:01;97596.56;;;13.60;54.29
40992;BME280;29633;49.168;9.848;2023-02-17T01:26:29;97597.53;;;13.59;54.41
40992;BME280;29633;49.168;9.848;2023-02-17T01:28:56;97600.22;;;13.57;54.27
40992;BME280;29633;49.168;9.848;2023-02-17T01:31:22;97603.91;;;13.55;54.45
40992;BME280;29633;49.168;9.848;2023-02-17T01:33:48;97599.41;;;13.57;54.38
40992;BME280;29633;49.168;9.848;2023-02-17T01:36:17;97602.84;;;13.57;54.40
40992;BME280;29633;49.168;9.848;2023-02-17T01:38:43;97600.47;;;13.54;54.26
40992;BME280;29633;49.168;9.848;2023-02-17T01:41:11;97598.59;;;13.56;54.35
40992;BME280;29633;49.168;9.848;2023-02-17T01:43:39;97590.88;;;13.55;54.43
40992;BME280;29633;49.168;9.848;2023-02-17T01:46:05;97581.41;;;13.54;54.52
40992;BME280;29633;49.168;9.848;2023-02-17T01:48:33;97585.69;;;13.55;54.44
40992;BME280;29633;49.168;9.848;2023-02-17T01:51:04;97572.75;;;13.53;54.46
40992;BME280;29633;49.168;9.848;2023-02-17T01:53:39;97568.53;;;13.52;54.49
40992;BME280;29633;49.168;9.848;2023-02-17T01:56:07;97563.31;;;13.52;54.47
40992;BME280;29633;49.168;9.848;2023-02-17T01:58:34;97561.28;;;13.56;54.36
40992;BME280;29633;49.168;9.848;2023-02-17T02:01:02;97564.00;;;13.54;54.45
40992;BME280;29633;49.168;9.848;2023-02-17T02:03:30;97566.63;;;13.54;54.35
40992;BME280;29633;49.168;9.848;2023-02-17T02:06:00;97564.16;;;13.53;54.50
40992;BME280;29633;49.168;9.848;2023-02-17T02:08:28;97556.19;;;13.54;54.46
40992;BME280;29633;49.168;9.848;2023-02-17T02:10:59;97561.16;;;13.57;54.35
40992;BME280;29633;49.168;9.848;2023-02-17T02:13:24;97548.84;;;13.59;54.34
40992;BME280;29633;49.168;9.848;2023-02-17T02:16:00;97550.47;;;13.60;54.30
40992;BME280;29633;49.168;9.848;2023-02-17T02:24:30;97531.34;;;13.50;54.59
40992;BME280;29633;49.168;9.848;2023-02-17T02:27:14;97534.66;;;13.52;54.56
40992;BME280;29633;49.168;9.848;2023-02-17T02:29:57;97530.41;;;13.51;54.56
40992;BME280;29633;49.168;9.848;2023-02-17T02:37:49;97539.75;;;13.43;54.59
40992;BME280;29633;49.168;9.848;2023-02-17T02:40:17;97538.94;;;13.42;54.61
40992;BME280;29633;49.168;9.848;2023-02-17T02:42:46;97539.91;;;13.41;54.58
40992;BME280;29633;49.168;9.848;2023-02-17T02:45:12;97533.03;;;13.40;54.73
40992;BME280;29633;49.168;9.848;2023-02-17T02:48:04;97520.25;;;13.37;54.68
40992;BME280;29633;49.168;9.848;2023-02-17T02:53:12;97514.31;;;13.35;
40992;BME280;29633;49.168;9.848;2023-02-17T02:55:52;97515.03;;;13.37;54.85
40992;BME280;29633;49.168;9.848;2023-02-17T03:01:10;97512.31;;;13.39;54.88
40992;BME280;29633;49.168;9.848;2023-02-17T03:03:58;97515.38;;;13.44;54.85
40992;BME280;29633;49.168;9.848;2023-02-17T03:06:36;97518.81;;;13.44;54.76
40992;BME280;29633;49.168;9.848;2023-02-17T03:09:11;97510.06;;;13.45;54.72
40992;BME280;29633;49.168;9.848;2023-02-17T03:11:39;97514.44;;;13.45;54.36
40992;BME280;29633;49.168;9.848;2023-02-17T03:14:09;97505.78;;;13.44;54.58
40992;BME280;29633;49.168;9.848;2023-02-17T03:16:36;97505.78;;;13.44;54.97
40992;BME280;29633;49.168;9.848;2023-02-17T03:19:03;97507.31;;;13.47;54.75
40992;BME280;29633;49.168;9.848;2023-02-17T03:21:46;97506.22;;;13.49;54.77
40992;BME280;29633;49.168;9.848;2023-02-17T03:24:12;97504.47;;;13.50;54.84
40992;BME280;29633;49.168;9.848;2023-02-17T03:26:38;97499.38;;;13.48;54.80
40992;BME280;29633;49.168;9.848;2023-02-17T03:29:03;97487.06;;;13.50;54.75
40992;BME280;29633;49.168;9.848;2023-02-17T03:31:29;97495.69;;;13.51;54.73
40992;BME280;29633;49.168;9.848;2023-02-17T03:33:55;97496.41;;;13.53;54.77
40992;BME280;29633;49.168;9.848;2023-02-17T03:36:21;97499.72;;;13.55;54.98
40992;BME280;29633;49.168;9.848;2023-02-17T03:38:47;97499.59;;;13.56;54.76
40992;BME280;29633;49.168;9.848;2023-02-17T03:41:12;97503.84;;;13.57;54.81
40992;BME280;29633;49.168;9.848;2023-02-17T03:43:38;97500.97;;;13.60;54.98
40992;BME280;29633;49.168;9.848;2023-02-17T03:46:04;97506.66;;;13.65;54.77
40992;BME280;29633;49.168;9.848;2023-02-17T03:48:29;97508.91;;;13.70;54.81
40992;BME280;29633;49.168;9.848;2023-02-17T03:50:55;97508.28;;;13.77;54.42
40992;BME280;29633;49.168;9.848;2023-02-17T03:53:20;97508.84;;;13.81;54.71
40992;BME280;29633;49.168;9.848;2023-02-17T03:55:46;97497.72;;;13.79;54.62
40992;BME280;29633;49.168;9.848;2023-02-17T03:58:12;97506.38;;;13.79;54.60
40992;BME280;29633;49.168;9.848;2023-02-17T04:00:37;97502.09;;;13.78;54.70
40992;BME280;29633;49.168;9.848;2023-02-17T04:03:03;97510.88;;;13.77;54.72
40992;BME280;29633;49.168;9.848;2023-02-17T04:05:29;97508.41;;;13.76;54.66
40992;BME280;29633;49.168;9.848;2023-02-17T04:07:55;97503.53;;;13.71;54.70
40992;BME280;29633;49.168;9.848;2023-02-17T04:10:20;97511.38;;;13.71;54.75
40992;BME280;29633;49.168;9.848;2023-02-17T04:12:46;97503.53;;;13.71;54.84
40992;BME280;29633;49.168;9.848;2023-02-17T04:15:11;97497.66;;;13.69;54.88
40992;BME280;29633;49.168;9.848;2023-02-17T04:17:37;97495.03;;;13.69;55.01
40992;BME280;29633;49.168;9.848;2023-02-17T04:20:04;97497.91;;;13.66;54.84
40992;BME280;29633;49.168;9.848;2023-02-17T04:22:30;97495.56;;;13.63;54.79
40992;BME280;29633;49.168;9.848;2023-02-17T04:24:56;97506.91;;;13.62;55.06
40992;BME280;29633;49.168;9.848;2023-02-17T04:27:21;97508.69;;;13.62;54.79
40992;BME280;29633;49.168;9.848;2023-02-17T04:29:47;97509.53;;;13.62;54.95
40992;BME280;29633;49.168;9.848;2023-02-17T04:32:13;97509.63;;;13.61;54.93
40992;BME280;29633;49.168;9.848;2023-02-17T04:34:38;97510.47;;;13.61;54.93
40992;BME280;29633;49.168;9.848;2023-02-17T04:37:05;97518.03;;;13.64;54.99
40992;BME280;29633;49.168;9.848;2023-02-17T04:39:31;97509.97;;;13.67;54.87
40992;BME280;29633;49.168;9.848;2023-02-17T04:41:56;97506.41;;;13.68;54.83
40992;BME280;29633;49.168;9.848;2023-02-17T04:44:22;97508.19;;;13.68;54.92
40992;BME280;29633;49.168;9.848;2023-02-17T04:46:48;97503.13;;;13.66;54.96
40992;BME280;29633;49.168;9.848;2023-02-17T04:49:13;97509.53;;;13.62;54.82
40992;BME280;29633;49.168;9.848;2023-02-17T04:51:39;97498.53;;;13.59;54.81
40992;BME280;29633;49.168;9.848;2023-02-17T04:54:04;97508.22;;;13.57;55.06
40992;BME280;29633;49.168;9.848;2023-02-17T04:56:30;97510.03;;;13.56;54.96
40992;BME280;29633;49.168;9.848;2023-02-17T04:58:56;97506.59;;;13.56;55.03
40992;BME280;29633;49.168;9.848;2023-02-17T05:01:21;97513.56;;;13.55;55.12
40992;BME280;29633;49.168;9.848;2023-02-17T05:03:47;97498.06;;;13.54;55.10
40992;BME280;29633;49.168;9.848;2023-02-17T05:06:12;97498.88;;;13.54;55.14
40992;BME280;29633;49.168;9.848;2023-02-17T05:08:38;97504.09;;;13.54;55.13
40992;BME280;29633;49.168;9.848;2023-02-17T05:11:04;97511.22;;;13.52;55.26
40992;BME280;29633;49.168;9.848;2023-02-17T05:13:29;97508.47;;;13.54;55.10
40992;BME280;29633;49.168;9.848;2023-02-17T05:15:57;97512.63;;;13.56;55.17
40992;BME280;29633;49.168;9.848;2023-02-17T05:18:23;97507.63;;;13.53;55.18
40992;BME280;29633;49.168;9.848;2023-02-17T05:20:48;97512.63;;;13.56;55.23
40992;BME280;29633;49.168;9.848;2023-02-17T05:23:14;97511.91;;;13.54;55.27
40992;BME280;29633;49.168;9.848;2023-02-17T05:25:39;97515.44;;;13.53;55.44
40992;BME280;29633;49.168;9.848;2023-02-17T05:28:05;97516.66;;;13.49;55.38
40992;BME280;29633;49.168;9.848;2023-02-17T05:30:31;97520.47;;;13.45;55.58
40992;BME280;29633;49.168;9.848;2023-02-17T05:32:56;97522.34;;;13.43;55.56
40992;BME280;29633;49.168;9.848;2023-02-17T05:35:23;97531.94;;;13.43;55.65
40992;BME280;29633;49.168;9.848;2023-02-17T05:37:48;97531.13;;;13.42;55.55
40992;BME280;29633;49.168;9.848;2023-02-17T05:40:14;97529.34;;;13.43;55.63
40992;BME280;29633;49.168;9.848;2023-02-17T05:42:39;97524.13;;;13.43;55.70
40992;BME280;29633;49.168;9.848;2023-02-17T05:45:05;97530.41;;;13.40;55.60
40992;BME280;29633;49.168;9.848;2023-02-17T05:47:31;97532.78;;;13.43;55.73
40992;BME280;29633;49.168;9.848;2023-02-17T05:49:57;97532.66;;;13.45;55.65
40992;BME280;29633;49.168;9.848;2023-02-17T05:52:22;97534.19;;;13.47;55.46
40992;BME280;29633;49.168;9.848;2023-02-17T05:54:48;97537.50;;;13.49;55.45
40992;BME280;29633;49.168;9.848;2023-02-17T05:57:14;97540.69;;;13.53;55.54
40992;BME280;29633;49.168;9.848;2023-02-17T05:59:39;97541.50;;;13.53;55.61
40992;BME280;29633;49.168;9.848;2023-02-17T06:02:05;97536.75;;;13.58;55.33
40992;BME280;29633;49.168;9.848;2023-02-17T06:04:31;97532.97;;;13.62;55.31
40992;BME280;29633;49.168;9.848;2023-02-17T06:06:56;97546.94;;;13.61;55.41
40992;BME280;29633;49.168;9.848;2023-02-17T06:09:22;97547.19;;;13.58;55.42
40992;BME280;29633;49.168;9.848;2023-02-17T06:11:48;97545.31;;;13.49;55.86
40992;BME280;29633;49.168;9.848;2023-02-17T06:14:13;97540.94;;;13.39;55.92
40992;BME280;29633;49.168;9.848;2023-02-17T06:16:39;97537.31;;;13.30;56.14
40992;BME280;29633;49.168;9.848;2023-02-17T06:19:04;97545.13;;;13.19;56.40
40992;BME280;29633;49.168;9.848;2023-02-17T06:21:31;97543.03;;;13.13;56.45
40992;BME280;29633;49.168;9.848;2023-02-17T06:23:57;97541.56;;;13.09;56.41
40992;BME280;29633;49.168;9.848;2023-02-17T06:26:22;97548.44;;;13.10;56.44
40992;BME280;29633;49.168;9.848;2023-02-17T06:28:48;97545.63;;;13.13;56.45
40992;BME280;29633;49.168;9.848;2023-02-17T06:31:14;97546.31;;;13.15;56.52
40992;BME280;29633;49.168;9.848;2023-02-17T06:33:39;97547.16;;;13.15;56.50
40992;BME280;29633;49.168;9.848;2023-02-17T06:36:05;97538.97;;;13.09;56.83
40992;BME280;29633;49.168;9.848;2023-02-17T06:38:31;97552.59;;;13.01;56.96
40992;BME280;29633;49.168;9.848;2023-02-17T06:40:57;97545.81;;;12.99;56.79
40992;BME280;29633;49.168;9.848;2023-02-17T06:43:23;97554.69;;;12.96;56.90
40992;BME280;29633;49.168;9.848;2023-02-17T06:45:48;97550.56;;;12.94;56.87
40992;BME280;29633;49.168;9.848;2023-02-17T06:48:14;97548.44;;;12.88;56.85
40992;BME280;29633;49.168;9.848;2023-02-17T06:50:40;97552.81;;;12.87;57.08
40992;BME280;29633;49.168;9.848;2023-02-17T06:53:05;97548.22;;;12.79;57.31
40992;BME280;29633;49.168;9.848;2023-02-17T06:55:31;97548.56;;;12.75;57.41
40992;BME280;29633;49.168;9.848;2023-02-17T06:57:59;97556.59;;;12.72;57.46
40992;BME280;29633;49.168;9.848;2023-02-17T07:00:24;97547.25;;;12.69;57.42
40992;BME280;29633;49.168;9.848;2023-02-17T07:02:51;97553.25;;;12.70;57.55
40992;BME280;29633;49.168;9.848;2023-02-17T07:05:17;97556.59;;;12.72;57.40
40992;BME280;29633;49.168;9.848;2023-02-17T07:07:42;97554.69;;;12.74;57.32
40992;BME280;29633;49.168;9.848;2023-02-17T07:10:08;97558.03;;;12.76;57.57
40992;BME280;29633;49.168;9.848;2023-02-17T07:12:34;97551.38;;;12.72;57.38
40992;BME280;29633;49.168;9.848;2023-02-17T07:15:00;97551.63;;;12.69;57.76
40992;BME280;29633;49.168;9.848;2023-02-17T07:17:25;97560.00;;;12.61;58.01
40992;BME280;29633;49.168;9.848;2023-02-17T07:19:51;97548.66;;;12.51;57.84
40992;BME280;29633;49.168;9.848;2023-02-17T07:22:16;97549.34;;;12.42;58.27
40992;BME280;29633;49.168;9.848;2023-02-17T07:24:42;97560.81;;;12.40;58.25
40992;BME280;29633;49.168;9.848;2023-02-17T07:27:08;97563.28;;;12.41;58.27
40992;BME280;29633;49.168;9.848;2023-02-17T07:29:33;97557.38;;;12.39;58.30
40992;BME280;29633;49.168;9.848;2023-02-17T07:31:59;97551.25;;;12.40;58.34
40992;BME280;29633;49.168;9.848;2023-02-17T07:34:25;97557.97;;;12.43;57.85
40992;BME280;29633;49.168;9.848;2023-02-17T07:36:51;97563.66;;;12.48;58.09
40992;BME280;29633;49.168;9.848;2023-02-17T07:39:19;97563.66;;;12.48;58.09
40992;BME280;29633;49.168;9.848;2023-02-17T07:41:45;97560.94;;;12.49;58.26
40992;BME280;29633;49.168;9.848;2023-02-17T07:44:10;97557.41;;;12.50;58.17
40992;BME280;29633;49.168;9.848;2023-02-17T07:46:36;97558.09;;;12.52;58.14
40992;BME280;29633;49.168;9.848;2023-02-17T07:49:04;97554.47;;;12.55;58.14
40992;BME280;29633;49.168;9.848;2023-02-17T07:51:30;97561.19;;;12.57;58.27
40992;BME280;29633;49.168;9.848;2023-02-17T07:53:56;97547.84;;;12.62;58.04
40992;BME280;29633;49.168;9.848;2023-02-17T07:56:22;97557.28;;;12.63;58.10
40992;BME280;29633;49.168;9.848;2023-02-17T07:58:48;97547.59;;;12.65;58.29
40992;BME280;29633;49.168;9.848;2023-02-17T08:01:19;97559.78;;;12.64;58.29
40992;BME280;29633;49.168;9.848;2023-02-17T08:03:45;97552.06;;;12.63;58.36
40992;BME280;29633;49.168;9.848;2023-02-17T08:06:19;97561.44;;;12.65;58.56
40992;BME280;29633;49.168;9.848;2023-02-17T08:08:45;97563.31;;;12.63;58.48
40992;BME280;29633;49.168;9.848;2023-02-17T08:11:30;97558.25;;;12.62;58.56
40992;BME280;29633;49.168;9.848;2023-02-17T08:14:14;97559.19;;;12.61;58.53
40992;BME280;29633;49.168;9.848;2023-02-17T08:16:40;97567.81;;;12.61;58.83
40992;BME280;29633;49.168;9.848;2023-02-17T08:19:06;97569.25;;;12.65;58.73
40992;BME280;29633;49.168;9.848;2023-02-17T08:21:31;97571.59;;;12.68;58.97
40992;BME280;29633;49.168;9.848;2023-02-17T08:23:57;97569.00;;;12.68;58.89
40992;BME280;29633;49.168;9.848;2023-02-17T08:26:23;97564.63;;;12.69;59.02
40992;BME280;29633;49.168;9.848;2023-02-17T08:28:49;97575.75;;;12.71;59.10
40992;BME280;29633;49.168;9.848;2023-02-17T08:31:19;97573.03;;;12.72;59.00
40992;BME280;29633;49.168;9.848;2023-02-17T08:33:46;97574.81;;;12.72;59.37
40992;BME280;29633;49.168;9.848;2023-02-17T08:36:12;97577.28;;;12.73;59.03
40992;BME280;29633;49.168;9.848;2023-02-17T08:38:38;97577.06;;;12.76;59.19
40992;BME280;29633;49.168;9.848;2023-02-17T08:41:14;97575.84;;;12.80;59.23
40992;BME280;29633;49.168;9.848;2023-02-17T08:43:42;97579.28;;;12.81;59.19
40992;BME280;29633;49.168;9.848;2023-02-17T08:46:09;97573.88;;;12.84;59.18
40992;BME280;29633;49.168;9.848;2023-02-17T08:48:35;97577.06;;;12.88;59.39
40992;BME280;29633;49.168;9.848;2023-02-17T08:51:02;97578.97;;;12.97;59.17
40992;BME280;29633;49.168;9.848;2023-02-17T08:53:27;97576.94;;;13.00;59.11
40992;BME280;29633;49.168;9.848;2023-02-17T08:55:53;97575.53;;;13.07;59.19
40992;BME280;29633;49.168;9.848;2023-02-17T08:58:19;97583.00;;;13.12;59.03
40992;BME280;29633;49.168;9.848;2023-02-17T09:00:44;97583.00;;;13.12;59.40
40992;BME280;29633;49.168;9.848;2023-02-17T09:05:38;97592.81;;;13.08;59.32
40992;BME280;29633;49.168;9.848;2023-02-17T09:08:04;97596.03;;;13.12;59.65
40992;BME280;29633;49.168;9.848;2023-02-17T09:10:30;97589.75;;;13.14;59.81
40992;BME280;29633;49.168;9.848;2023-02-17T09:12:55;97599.22;;;13.15;59.66
40992;BME280;29633;49.168;9.848;2023-02-17T09:15:21;97591.53;;;13.14;59.57
40992;BME280;29633;49.168;9.848;2023-02-17T09:17:47;97595.44;;;13.19;59.63
40992;BME280;29633;49.168;9.848;2023-02-17T09:20:13;97601.34;;;13.21;59.63
40992;BME280;29633;49.168;9.848;2023-02-17T09:22:38;97604.53;;;13.25;59.63
40992;BME280;29633;49.168;9.848;2023-02-17T09:25:04;97601.69;;;13.28;59.74
40992;BME280;29633;49.168;9.848;2023-02-17T09:27:30;97620.41;;;13.33;59.79
40992;BME280;29633;49.168;9.848;2023-02-17T09:29:56;97609.16;;;13.32;59.76
40992;BME280;29633;49.168;9.848;2023-02-17T09:32:22;97615.88;;;13.35;59.83
40992;BME280;29633;49.168;9.848;2023-02-17T09:34:48;97616.03;;;13.34;59.84
40992;BME280;29633;49.168;9.848;2023-02-17T09:37:18;97617.91;;;13.31;59.99
40992;BME280;29633;49.168;9.848;2023-02-17T09:39:44;97604.06;;;13.31;60.16
40992;BME280;29633;49.168;9.848;2023-02-17T09:42:20;97614.34;;;13.32;60.18
40992;BME280;29633;49.168;9.848;2023-02-17T09:44:56;97602.16;;;13.33;60.23
40992;BME280;29633;49.168;9.848;2023-02-17T09:47:28;97589.03;;;13.35;60.13
40992;BME280;29633;49.168;9.848;2023-02-17T09:52:51;97610.22;;;13.41;60.30
40992;BME280;29633;49.168;9.848;2023-02-17T09:55:25;97609.25;;;13.42;60.27
40992;BME280;29633;49.168;9.848;2023-02-17T09:58:25;97606.53;;;13.44;60.14
40992;BME280;29633;49.168;9.848;2023-02-17T10:00:57;97607.13;;;13.47;60.19
40992;BME280;29633;49.168;9.848;2023-02-17T10:03:53;97611.03;;;13.53;60.21
40992;BME280;29633;49.168;9.848;2023-02-17T10:06:28;97605.59;;;13.56;60.14
40992;BME280;29633;49.168;9.848;2023-02-17T10:09:46;97607.09;;;13.58;60.27
40992;BME280;29633;49.168;9.848;2023-02-17T10:12:29;97606.59;;;13.64;60.11
40992;BME280;29633;49.168;9.848;2023-02-17T10:15:06;97606.25;;;13.69;60.15
40992;BME280;29633;49.168;9.848;2023-02-17T10:17:47;97596.16;;;13.75;60.13
40992;BME280;29633;49.168;9.848;2023-02-17T10:20:21;97602.78;;;13.79;60.05
40992;BME280;29633;49.168;9.848;2023-02-17T10:22:54;97601.00;;;13.80;60.13
40992;BME280;29633;49.168;9.848;2023-02-17T10:25:39;97607.16;;;13.79;60.05
40992;BME280;29633;49.168;9.848;2023-02-17T10:28:11;97609.09;;;13.77;60.31
40992;BME280;29633;49.168;9.848;2023-02-17T10:33:25;97604.19;;;13.84;60.23
40992;BME280;29633;49.168;9.848;2023-02-17T10:38:59;97603.94;;;13.87;60.61
40992;BME280;29633;49.168;9.848;2023-02-17T10:41:35;97608.09;;;13.89;60.65
40992;BME280;29633;49.168;9.848;2023-02-17T10:44:08;97590.66;;;13.90;60.62
40992;BME280;29633;49.168;9.848;2023-02-17T10:46:36;97603.34;;;13.94;60.75
40992;BME280;29633;49.168;9.848;2023-02-17T10:49:03;97597.75;;;13.99;60.59
40992;BME280;29633;49.168;9.848;2023-02-17T10:51:29;97597.50;;;14.02;60.81
40992;BME280;29633;49.168;9.848;2023-02-17T10:54:02;97592.19;;;14.03;60.64
40992;BME280;29633;49.168;9.848;2023-02-17T10:56:38;97590.94;;;14.07;60.74
40992;BME280;29633;49.168;9.848;2023-02-17T10:59:26;97580.31;;;14.10;60.59
40992;BME280;29633;49.168;9.848;2023-02-17T11:02:21;97582.91;;;14.10;60.62
40992;BME280;29633;49.168;9.848;2023-02-17T11:04:51;97574.00;;;14.13;60.99
40992;BME280;29633;49.168;9.848;2023-02-17T11:07:25;97572.91;;;14.15;60.69
40992;BME280;29633;49.168;9.848;2023-02-17T11:09:58;97576.25;;;14.17;60.65
40992;BME280;29633;49.168;9.848;2023-02-17T11:12:38;97572.81;;;14.17;60.81
40992;BME280;29633;49.168;9.848;2023-02-17T11:15:19;97563.06;;;14.19;60.82
40992;BME280;29633;49.168;9.848;2023-02-17T11:17:46;97573.38;;;14.20;60.73
40992;BME280;29633;49.168;9.848;2023-02-17T11:27:53;97572.66;;;14.18;61.09
40992;BME280;29633;49.168;9.848;2023-02-17T11:30:19;97578.69;;;14.19;61.16
40992;BME280;29633;49.168;9.848;2023-02-17T11:32:45;97564.03;;;14.18;61.14
40992;BME280;29633;49.168;9.848;2023-02-17T11:38:17;97575.19;;;14.09;61.43
40992;BME280;29633;49.168;9.848;2023-02-17T11:40:57;97574.25;;;14.10;61.48
40992;BME280;29633;49.168;9.848;2023-02-17T11:43:24;97578.63;;;14.09;61.38
40992;BME280;29633;49.168;9.848;2023-02-17T11:45:55;97575.66;;;14.14;61.37
40992;BME280;29633;49.168;9.848;2023-02-17T11:54:03;97575.41;;;14.17;61.36
40992;BME280;29633;49.168;9.848;2023-02-17T11:56:40;97567.69;;;14.15;61.52
40992;BME280;29633;49.168;9.848;2023-02-17T12:02:17;97575.66;;;14.14;61.72
40992;BME280;29633;49.168;9.848;2023-02-17T12:12:31;97584.13;;;14.27;61.72
40992;BME280;29633;49.168;9.848;2023-02-17T12:28:47;97559.09;;;14.36;61.95
40992;BME280;29633;49.168;9.848;2023-02-17T12:36:48;97551.13;;;14.37;62.09
40992;BME280;29633;49.168;9.848;2023-02-17T12:39:31;97547.69;;;14.37;62.11
40992;BME280;29633;49.168;9.848;2023-02-17T12:42:06;97554.47;;;14.39;62.27
40992;BME280;29633;49.168;9.848;2023-02-17T12:44:35;97552.81;;;14.38;62.17
40992;BME280;29633;49.168;9.848;2023-02-17T12:47:14;97557.75;;;14.41;62.14
40992;BME280;29633;49.168;9.848;2023-02-17T12:49:48;97563.81;;;14.42;62.25
40992;BME280;29633;49.168;9.848;2023-02-17T12:52:24;97552.16;;;14.46;62.28
40992;BME280;29633;49.168;9.848;2023-02-17T12:54:54;97557.13;;;14.49;62.30
40992;BME280;29633;49.168;9.848;2023-02-17T13:00:21;97556.16;;;14.50;62.45
40992;BME280;29633;49.168;9.848;2023-02-17T13:02:48;97550.81;;;14.51;62.38
40992;BME280;29633;49.168;9.848;2023-02-17T13:05:24;97548.66;;;14.56;62.43
40992;BME280;29633;49.168;9.848;2023-02-17T13:10:39;97553.50;;;14.61;62.21
40992;BME280;29633;49.168;9.848;2023-02-17T13:15:44;97534.25;;;14.62;62.58
40992;BME280;29633;49.168;9.848;2023-02-17T13:20:53;97527.25;;;14.62;62.51
40992;BME280;29633;49.168;9.848;2023-02-17T13:23:37;97528.91;;;14.63;62.61
40992;BME280;29633;49.168;9.848;2023-02-17T13:28:48;97521.53;;;14.68;62.66
40992;BME280;29633;49.168;9.848;2023-02-17T13:31:17;97526.50;;;14.71;62.71
40992;BME280;29633;49.168;9.848;2023-02-17T13:33:54;97515.63;;;14.76;62.67
40992;BME280;29633;49.168;9.848;2023-02-17T13:36:34;97525.13;;;14.77;62.62
40992;BME280;29633;49.168;9.848;2023-02-17T13:41:56;97517.28;;;14.77;62.90
40992;BME280;29633;49.168;9.848;2023-02-17T13:46:52;97507.69;;;14.77;62.79
40992;BME280;29633;49.168;9.848;2023-02-17T13:49:26;97504.69;;;14.82;63.01
40992;BME280;29633;49.168;9.848;2023-02-17T13:51:53;97499.75;;;14.89;62.59
40992;BME280;29633;49.168;9.848;2023-02-17T13:54:22;97496.88;;;14.92;62.57
40992;BME280;29633;49.168;9.848;2023-02-17T13:56:52;97501.16;;;14.93;62.96
40992;BME280;29633;49.168;9.848;2023-02-17T13:59:24;97486.16;;;14.95;62.86
40992;BME280;29633;49.168;9.848;2023-02-17T14:01:50;97495.41;;;14.99;62.49
40992;BME280;29633;49.168;9.848;2023-02-17T14:06:46;97493.91;;;15.06;62.75
40992;BME280;29633;49.168;9.848;2023-02-17T14:09:27;97494.34;;;15.11;62.69
40992;BME280;29633;49.168;9.848;2023-02-17T14:11:55;97494.75;;;15.16;62.66
40992;BME280;29633;49.168;9.848;2023-02-17T14:14:32;97495.47;;;15.18;62.67
40992;BME280;29633;49.168;9.848;2023-02-17T14:17:00;97499.47;;;15.22;62.77
40992;BME280;29633;49.168;9.848;2023-02-17T14:19:27;97499.72;;;15.19;62.66
40992;BME280;29633;49.168;9.848;2023-02-17T14:22:00;97501.09;;;15.23;62.74
40992;BME280;29633;49.168;9.848;2023-02-17T14:24:35;97503.47;;;15.26;62.76
40992;BME280;29633;49.168;9.848;2023-02-17T14:27:02;97500.41;;;15.31;62.75
40992;BME280;29633;49.168;9.848;2023-02-17T14:29:41;97493.28;;;15.33;62.54
40992;BME280;29633;49.168;9.848;2023-02-17T14:32:35;97493.69;;;15.38;62.74
40992;BME280;29633;49.168;9.848;2023-02-17T14:37:40;97494.00;;;15.44;62.76
40992;BME280;29633;49.168;9.848;2023-02-17T14:40:16;97489.22;;;15.49;62.67
40992;BME280;29633;49.168;9.848;2023-02-17T14:42:42;97486.72;;;15.48;62.81
40992;BME280;29633;49.168;9.848;2023-02-17T14:45:08;97481.50;;;15.48;62.82
40992;BME280;29633;49.168;9.848;2023-02-17T14:47:33;97481.75;;;15.45;62.97